sensor_id;sensor_type;location;lat;lon;timestamp;P1;durP1;ratioP1;P2;durP2;ratioP2
17504;SDS011;8870;50.950;11.762;2022-09-03T00:02:51;2.35;;;0.60;;
17504;SDS011;8870;50.950;11.762;2022-09-03T00:08:02;1.08;;;0.50;;
17504;SDS011;8870;50.950;11.762;2022-09-03T00:13:14;1.92;;;0.60;;
17504;SDS011;8870;50.950;11.762;2022-09-03T00:18:24;2.83;;;0.80;;
17504;SDS011;8870;50.950;11.762;2022-09-03T00:23:33;0.98;;;0.60;;
17504;SDS011;8870;50.950;11.762;2022-09-03T00:28:41;3.05;;;0.60;;
17504;SDS011;8870;50.950;11.762;2022-09-03T00:33:53;1.80;;;0.60;;
17504;SDS011;8870;50.950;11.762;2022-09-03T00:39:01;1.60;;;0.60;;
17504;SDS011;8870;50.950;11.762;2022-09-03T00:44:12;2.35;;;0.60;;
17504;SDS011;8870;50.950;11.762;2022-09-03T00:49:34;1.48;;;0.68;;
17504;SDS011;8870;50.950;11.762;2022-09-03T00:54:48;1.23;;;0.70;;
17504;SDS011;8870;50.950;11.762;2022-09-03T01:00:04;0.57;;;0.55;;
17504;SDS011;8870;50.950;11.762;2022-09-03T01:05:17;0.93;;;0.60;;
17504;SDS011;8870;50.950;11.762;2022-09-03T01:10:31;2.15;;;0.65;;
17504;SDS011;8870;50.950;11.762;2022-09-03T01:15:48;1.83;;;0.60;;
17504;SDS011;8870;50.950;11.762;2022-09-03T01:21:11;1.33;;;0.57;;
17504;SDS011;8870;50.950;11.762;2022-09-03T01:26:28;4.38;;;0.80;;
17504;SDS011;8870;50.950;11.762;2022-09-03T01:31:49;0.60;;;0.60;;
17504;SDS011;8870;50.950;11.762;2022-09-03T01:37:04;1.13;;;0.60;;
17504;SDS011;8870;50.950;11.762;2022-09-03T01:42:18;3.22;;;0.55;;
17504;SDS011;8870;50.950;11.762;2022-09-03T01:47:37;2.20;;;0.80;;
17504;SDS011;8870;50.950;11.762;2022-09-03T01:52:53;2.28;;;0.70;;
17504;SDS011;8870;50.950;11.762;2022-09-03T01:58:07;2.10;;;0.80;;
17504;SDS011;8870;50.950;11.762;2022-09-03T02:03:18;1.33;;;0.80;;
17504;SDS011;8870;50.950;11.762;2022-09-03T02:08:23;2.25;;;0.60;;
17504;SDS011;8870;50.950;11.762;2022-09-03T02:13:30;0.73;;;0.68;;
17504;SDS011;8870;50.950;11.762;2022-09-03T02:18:43;1.60;;;0.70;;
17504;SDS011;8870;50.950;11.762;2022-09-03T02:23:51;0.60;;;0.60;;
17504;SDS011;8870;50.950;11.762;2022-09-03T02:28:56;0.95;;;0.70;;
17504;SDS011;8870;50.950;11.762;2022-09-03T02:34:04;0.57;;;0.57;;
17504;SDS011;8870;50.950;11.762;2022-09-03T02:39:09;1.23;;;0.80;;
17504;SDS011;8870;50.950;11.762;2022-09-03T02:44:15;1.00;;;0.80;;
17504;SDS011;8870;50.950;11.762;2022-09-03T02:49:30;1.27;;;0.70;;
17504;SDS011;8870;50.950;11.762;2022-09-03T02:54:35;1.65;;;0.70;;
17504;SDS011;8870;50.950;11.762;2022-09-03T03:05:17;1.98;;;0.70;;
17504;SDS011;8870;50.950;11.762;2022-09-03T03:10:27;1.02;;;0.73;;
17504;SDS011;8870;50.950;11.762;2022-09-03T03:15:33;1.17;;;0.80;;
17504;SDS011;8870;50.950;11.762;2022-09-03T03:20:40;2.20;;;0.70;;
17504;SDS011;8870;50.950;11.762;2022-09-03T03:25:45;1.27;;;0.68;;
17504;SDS011;8870;50.950;11.762;2022-09-03T03:30:49;3.90;;;0.73;;
17504;SDS011;8870;50.950;11.762;2022-09-03T03:35:59;1.20;;;0.80;;
17504;SDS011;8870;50.950;11.762;2022-09-03T03:41:08;0.90;;;0.60;;
17504;SDS011;8870;50.950;11.762;2022-09-03T03:46:14;3.45;;;0.80;;
17504;SDS011;8870;50.950;11.762;2022-09-03T03:51:21;2.78;;;1.00;;
17504;SDS011;8870;50.950;11.762;2022-09-03T03:56:26;1.42;;;0.70;;
17504;SDS011;8870;50.950;11.762;2022-09-03T04:01:30;1.80;;;0.77;;
17504;SDS011;8870;50.950;11.762;2022-09-03T04:06:38;1.33;;;0.70;;
17504;SDS011;8870;50.950;11.762;2022-09-03T04:11:43;1.42;;;0.70;;
17504;SDS011;8870;50.950;11.762;2022-09-03T04:16:48;1.75;;;0.75;;
17504;SDS011;8870;50.950;11.762;2022-09-03T04:21:55;2.88;;;0.75;;
17504;SDS011;8870;50.950;11.762;2022-09-03T04:26:59;1.27;;;0.70;;
17504;SDS011;8870;50.950;11.762;2022-09-03T04:32:04;0.82;;;0.63;;
17504;SDS011;8870;50.950;11.762;2022-09-03T04:37:24;1.98;;;0.82;;
17504;SDS011;8870;50.950;11.762;2022-09-03T04:42:29;3.13;;;0.70;;
17504;SDS011;8870;50.950;11.762;2022-09-03T04:47:35;1.50;;;0.88;;
17504;SDS011;8870;50.950;11.762;2022-09-03T04:52:42;0.82;;;0.63;;
17504;SDS011;8870;50.950;11.762;2022-09-03T04:57:47;1.25;;;0.70;;
17504;SDS011;8870;50.950;11.762;2022-09-03T05:02:52;0.70;;;0.60;;
17504;SDS011;8870;50.950;11.762;2022-09-03T05:08:00;1.92;;;0.77;;
17504;SDS011;8870;50.950;11.762;2022-09-03T05:13:06;0.85;;;0.60;;
17504;SDS011;8870;50.950;11.762;2022-09-03T05:18:12;1.33;;;0.80;;
17504;SDS011;8870;50.950;11.762;2022-09-03T05:23:20;2.50;;;0.70;;
17504;SDS011;8870;50.950;11.762;2022-09-03T05:28:26;1.50;;;0.60;;
17504;SDS011;8870;50.950;11.762;2022-09-03T05:33:33;2.00;;;0.80;;
17504;SDS011;8870;50.950;11.762;2022-09-03T05:38:41;1.63;;;0.88;;
17504;SDS011;8870;50.950;11.762;2022-09-03T05:43:46;0.77;;;0.70;;
17504;SDS011;8870;50.950;11.762;2022-09-03T05:48:56;1.42;;;0.70;;
17504;SDS011;8870;50.950;11.762;2022-09-03T05:54:05;1.95;;;0.90;;
17504;SDS011;8870;50.950;11.762;2022-09-03T05:59:10;2.88;;;0.70;;
17504;SDS011;8870;50.950;11.762;2022-09-03T06:04:15;0.70;;;0.70;;
17504;SDS011;8870;50.950;11.762;2022-09-03T06:09:22;1.73;;;0.90;;
17504;SDS011;8870;50.950;11.762;2022-09-03T06:14:28;1.38;;;0.73;;
17504;SDS011;8870;50.950;11.762;2022-09-03T06:19:33;1.52;;;0.90;;
17504;SDS011;8870;50.950;11.762;2022-09-03T06:24:40;1.83;;;0.80;;
17504;SDS011;8870;50.950;11.762;2022-09-03T06:29:45;0.75;;;0.70;;
17504;SDS011;8870;50.950;11.762;2022-09-03T06:34:52;0.93;;;0.80;;
17504;SDS011;8870;50.950;11.762;2022-09-03T06:39:59;0.80;;;0.50;;
17504;SDS011;8870;50.950;11.762;2022-09-03T06:45:04;1.90;;;0.80;;
17504;SDS011;8870;50.950;11.762;2022-09-03T06:50:12;1.23;;;0.60;;
17504;SDS011;8870;50.950;11.762;2022-09-03T06:55:21;1.17;;;0.80;;
17504;SDS011;8870;50.950;11.762;2022-09-03T07:00:26;1.45;;;0.70;;
17504;SDS011;8870;50.950;11.762;2022-09-03T07:05:32;1.88;;;0.70;;
17504;SDS011;8870;50.950;11.762;2022-09-03T07:10:40;0.88;;;0.52;;
17504;SDS011;8870;50.950;11.762;2022-09-03T07:15:57;2.10;;;0.65;;
17504;SDS011;8870;50.950;11.762;2022-09-03T07:21:04;0.50;;;0.50;;
17504;SDS011;8870;50.950;11.762;2022-09-03T07:26:13;1.55;;;0.50;;
17504;SDS011;8870;50.950;11.762;2022-09-03T07:31:22;1.70;;;0.50;;
17504;SDS011;8870;50.950;11.762;2022-09-03T07:36:28;1.63;;;0.60;;
17504;SDS011;8870;50.950;11.762;2022-09-03T07:41:38;0.90;;;0.50;;
17504;SDS011;8870;50.950;11.762;2022-09-03T07:46:55;1.33;;;0.70;;
17504;SDS011;8870;50.950;11.762;2022-09-03T07:52:02;0.63;;;0.55;;
17504;SDS011;8870;50.950;11.762;2022-09-03T07:57:15;1.90;;;0.63;;
17504;SDS011;8870;50.950;11.762;2022-09-03T08:02:19;1.20;;;0.68;;
17504;SDS011;8870;50.950;11.762;2022-09-03T08:07:25;1.00;;;0.52;;
17504;SDS011;8870;50.950;11.762;2022-09-03T08:12:35;1.02;;;0.50;;
17504;SDS011;8870;50.950;11.762;2022-09-03T08:17:42;0.85;;;0.50;;
17504;SDS011;8870;50.950;11.762;2022-09-03T08:22:47;0.70;;;0.50;;
17504;SDS011;8870;50.950;11.762;2022-09-03T08:27:56;1.58;;;0.60;;
17504;SDS011;8870;50.950;11.762;2022-09-03T08:33:02;1.55;;;0.55;;
17504;SDS011;8870;50.950;11.762;2022-09-03T08:38:07;1.35;;;0.50;;
17504;SDS011;8870;50.950;11.762;2022-09-03T08:43:16;1.90;;;0.50;;
17504;SDS011;8870;50.950;11.762;2022-09-03T08:48:25;1.30;;;0.28;;
17504;SDS011;8870;50.950;11.762;2022-09-03T08:53:34;0.77;;;0.45;;
17504;SDS011;8870;50.950;11.762;2022-09-03T08:58:51;0.85;;;0.50;;
17504;SDS011;8870;50.950;11.762;2022-09-03T09:03:57;0.60;;;0.50;;
17504;SDS011;8870;50.950;11.762;2022-09-03T09:09:16;1.10;;;0.57;;
17504;SDS011;8870;50.950;11.762;2022-09-03T09:14:34;0.43;;;0.40;;
17504;SDS011;8870;50.950;11.762;2022-09-03T09:19:45;2.35;;;0.50;;
17504;SDS011;8870;50.950;11.762;2022-09-03T09:25:03;1.38;;;0.40;;
17504;SDS011;8870;50.950;11.762;2022-09-03T09:30:17;0.77;;;0.40;;
17504;SDS011;8870;50.950;11.762;2022-09-03T09:35:22;1.15;;;0.40;;
17504;SDS011;8870;50.950;11.762;2022-09-03T09:40:29;0.85;;;0.40;;
17504;SDS011;8870;50.950;11.762;2022-09-03T09:45:38;1.30;;;0.25;;
17504;SDS011;8870;50.950;11.762;2022-09-03T09:50:44;0.90;;;0.35;;
17504;SDS011;8870;50.950;11.762;2022-09-03T09:55:50;0.80;;;0.30;;
17504;SDS011;8870;50.950;11.762;2022-09-03T10:01:05;0.55;;;0.40;;
17504;SDS011;8870;50.950;11.762;2022-09-03T10:06:16;0.73;;;0.35;;
17504;SDS011;8870;50.950;11.762;2022-09-03T10:11:33;0.52;;;0.30;;
17504;SDS011;8870;50.950;11.762;2022-09-03T10:16:44;0.30;;;0.30;;
17504;SDS011;8870;50.950;11.762;2022-09-03T10:21:56;0.50;;;0.40;;
17504;SDS011;8870;50.950;11.762;2022-09-03T10:27:07;1.38;;;0.35;;
17504;SDS011;8870;50.950;11.762;2022-09-03T10:32:20;1.20;;;0.30;;
17504;SDS011;8870;50.950;11.762;2022-09-03T10:37:43;0.40;;;0.30;;
17504;SDS011;8870;50.950;11.762;2022-09-03T10:42:55;1.63;;;0.50;;
17504;SDS011;8870;50.950;11.762;2022-09-03T10:48:31;1.10;;;0.25;;
17504;SDS011;8870;50.950;11.762;2022-09-03T10:59:24;1.20;;;0.45;;
17504;SDS011;8870;50.950;11.762;2022-09-03T11:04:42;1.35;;;0.40;;
17504;SDS011;8870;50.950;11.762;2022-09-03T11:09:56;1.08;;;0.40;;
17504;SDS011;8870;50.950;11.762;2022-09-03T11:15:05;2.05;;;0.30;;
17504;SDS011;8870;50.950;11.762;2022-09-03T11:20:20;1.98;;;0.43;;
17504;SDS011;8870;50.950;11.762;2022-09-03T11:25:30;0.30;;;0.30;;
17504;SDS011;8870;50.950;11.762;2022-09-03T11:30:39;1.40;;;0.32;;
17504;SDS011;8870;50.950;11.762;2022-09-03T11:35:59;0.47;;;0.30;;
17504;SDS011;8870;50.950;11.762;2022-09-03T11:41:10;1.08;;;0.30;;
17504;SDS011;8870;50.950;11.762;2022-09-03T11:46:26;0.57;;;0.40;;
17504;SDS011;8870;50.950;11.762;2022-09-03T11:51:36;0.35;;;0.35;;
17504;SDS011;8870;50.950;11.762;2022-09-03T11:56:45;1.88;;;0.35;;
17504;SDS011;8870;50.950;11.762;2022-09-03T12:01:55;1.13;;;0.40;;
17504;SDS011;8870;50.950;11.762;2022-09-03T12:07:12;0.55;;;0.40;;
17504;SDS011;8870;50.950;11.762;2022-09-03T12:12:41;1.53;;;0.50;;
17504;SDS011;8870;50.950;11.762;2022-09-03T12:17:55;0.55;;;0.30;;
17504;SDS011;8870;50.950;11.762;2022-09-03T12:23:24;1.60;;;0.50;;
17504;SDS011;8870;50.950;11.762;2022-09-03T12:28:33;0.30;;;0.30;;
17504;SDS011;8870;50.950;11.762;2022-09-03T12:33:44;0.85;;;0.50;;
17504;SDS011;8870;50.950;11.762;2022-09-03T12:38:53;0.95;;;0.40;;
17504;SDS011;8870;50.950;11.762;2022-09-03T12:44:13;0.63;;;0.38;;
17504;SDS011;8870;50.950;11.762;2022-09-03T12:49:19;2.65;;;0.40;;
17504;SDS011;8870;50.950;11.762;2022-09-03T12:54:34;0.95;;;0.30;;
17504;SDS011;8870;50.950;11.762;2022-09-03T12:59:51;0.68;;;0.40;;
17504;SDS011;8870;50.950;11.762;2022-09-03T13:05:00;0.22;;;0.20;;
17504;SDS011;8870;50.950;11.762;2022-09-03T13:10:14;0.82;;;0.35;;
17504;SDS011;8870;50.950;11.762;2022-09-03T13:15:27;0.40;;;0.40;;
17504;SDS011;8870;50.950;11.762;2022-09-03T13:20:34;0.98;;;0.30;;
17504;SDS011;8870;50.950;11.762;2022-09-03T13:25:52;2.10;;;0.40;;
17504;SDS011;8870;50.950;11.762;2022-09-03T13:31:09;2.13;;;0.40;;
17504;SDS011;8870;50.950;11.762;2022-09-03T13:36:27;0.75;;;0.47;;
17504;SDS011;8870;50.950;11.762;2022-09-03T13:41:37;2.35;;;0.40;;
17504;SDS011;8870;50.950;11.762;2022-09-03T13:46:47;0.57;;;0.30;;
17504;SDS011;8870;50.950;11.762;2022-09-03T13:51:57;0.60;;;0.30;;
17504;SDS011;8870;50.950;11.762;2022-09-03T13:57:09;0.68;;;0.30;;
17504;SDS011;8870;50.950;11.762;2022-09-03T14:02:31;0.95;;;0.30;;
17504;SDS011;8870;50.950;11.762;2022-09-03T14:07:55;2.67;;;0.30;;
17504;SDS011;8870;50.950;11.762;2022-09-03T14:13:13;1.45;;;0.50;;
17504;SDS011;8870;50.950;11.762;2022-09-03T14:18:31;0.63;;;0.38;;
17504;SDS011;8870;50.950;11.762;2022-09-03T14:23:46;0.90;;;0.28;;
17504;SDS011;8870;50.950;11.762;2022-09-03T14:29:00;2.15;;;0.40;;
17504;SDS011;8870;50.950;11.762;2022-09-03T14:34:07;1.95;;;0.40;;
17504;SDS011;8870;50.950;11.762;2022-09-03T14:39:27;0.82;;;0.43;;
17504;SDS011;8870;50.950;11.762;2022-09-03T14:50:18;2.00;;;0.43;;
17504;SDS011;8870;50.950;11.762;2022-09-03T14:55:50;0.30;;;0.25;;
17504;SDS011;8870;50.950;11.762;2022-09-03T15:01:09;0.47;;;0.25;;
17504;SDS011;8870;50.950;11.762;2022-09-03T15:06:20;1.42;;;0.32;;
17504;SDS011;8870;50.950;11.762;2022-09-03T15:11:42;0.85;;;0.40;;
17504;SDS011;8870;50.950;11.762;2022-09-03T15:16:57;1.15;;;0.40;;
17504;SDS011;8870;50.950;11.762;2022-09-03T15:22:11;2.10;;;0.47;;
17504;SDS011;8870;50.950;11.762;2022-09-03T15:27:39;0.52;;;0.35;;
17504;SDS011;8870;50.950;11.762;2022-09-03T15:33:02;0.68;;;0.35;;
17504;SDS011;8870;50.950;11.762;2022-09-03T15:38:18;0.98;;;0.30;;
17504;SDS011;8870;50.950;11.762;2022-09-03T15:43:28;0.50;;;0.40;;
17504;SDS011;8870;50.950;11.762;2022-09-03T15:48:42;1.02;;;0.32;;
17504;SDS011;8870;50.950;11.762;2022-09-03T15:53:52;1.63;;;0.43;;
17504;SDS011;8870;50.950;11.762;2022-09-03T15:59:06;1.52;;;0.43;;
17504;SDS011;8870;50.950;11.762;2022-09-03T16:04:26;0.63;;;0.40;;
17504;SDS011;8870;50.950;11.762;2022-09-03T16:09:44;1.52;;;0.40;;
17504;SDS011;8870;50.950;11.762;2022-09-03T16:15:18;2.63;;;0.50;;
17504;SDS011;8870;50.950;11.762;2022-09-03T16:20:31;3.37;;;0.70;;
17504;SDS011;8870;50.950;11.762;2022-09-03T16:25:43;1.48;;;0.43;;
17504;SDS011;8870;50.950;11.762;2022-09-03T16:30:56;0.52;;;0.40;;
17504;SDS011;8870;50.950;11.762;2022-09-03T16:36:21;1.77;;;0.40;;
17504;SDS011;8870;50.950;11.762;2022-09-03T16:41:40;2.72;;;0.52;;
17504;SDS011;8870;50.950;11.762;2022-09-03T16:46:52;1.40;;;0.50;;
17504;SDS011;8870;50.950;11.762;2022-09-03T16:52:10;2.08;;;0.40;;
17504;SDS011;8870;50.950;11.762;2022-09-03T16:57:42;4.25;;;0.60;;
17504;SDS011;8870;50.950;11.762;2022-09-03T17:08:30;0.50;;;0.50;;
17504;SDS011;8870;50.950;11.762;2022-09-03T17:13:51;2.08;;;0.45;;
17504;SDS011;8870;50.950;11.762;2022-09-03T17:19:17;2.42;;;0.40;;
17504;SDS011;8870;50.950;11.762;2022-09-03T17:24:35;3.15;;;0.47;;
17504;SDS011;8870;50.950;11.762;2022-09-03T17:29:54;3.65;;;0.60;;
17504;SDS011;8870;50.950;11.762;2022-09-03T17:35:20;4.10;;;0.52;;
17504;SDS011;8870;50.950;11.762;2022-09-03T17:40:42;1.10;;;0.52;;
17504;SDS011;8870;50.950;11.762;2022-09-03T17:45:58;0.50;;;0.40;;
17504;SDS011;8870;50.950;11.762;2022-09-03T17:51:14;1.50;;;0.65;;
17504;SDS011;8870;50.950;11.762;2022-09-03T17:56:38;1.08;;;0.57;;
17504;SDS011;8870;50.950;11.762;2022-09-03T18:01:51;1.25;;;0.50;;
17504;SDS011;8870;50.950;11.762;2022-09-03T18:07:08;0.98;;;0.40;;
17504;SDS011;8870;50.950;11.762;2022-09-03T18:12:25;1.02;;;0.52;;
17504;SDS011;8870;50.950;11.762;2022-09-03T18:17:36;1.55;;;0.57;;
17504;SDS011;8870;50.950;11.762;2022-09-03T18:22:51;1.20;;;0.50;;
17504;SDS011;8870;50.950;11.762;2022-09-03T18:28:15;0.63;;;0.40;;
17504;SDS011;8870;50.950;11.762;2022-09-03T18:33:36;2.88;;;0.60;;
17504;SDS011;8870;50.950;11.762;2022-09-03T18:39:04;3.25;;;0.90;;
17504;SDS011;8870;50.950;11.762;2022-09-03T18:44:32;2.28;;;0.50;;
17504;SDS011;8870;50.950;11.762;2022-09-03T18:50:21;0.73;;;0.60;;
17504;SDS011;8870;50.950;11.762;2022-09-03T18:55:45;3.20;;;1.08;;
17504;SDS011;8870;50.950;11.762;2022-09-03T19:01:18;1.50;;;1.40;;
17504;SDS011;8870;50.950;11.762;2022-09-03T19:06:46;3.33;;;1.30;;
17504;SDS011;8870;50.950;11.762;2022-09-03T19:12:15;2.10;;;1.20;;
17504;SDS011;8870;50.950;11.762;2022-09-03T19:17:50;3.75;;;1.20;;
17504;SDS011;8870;50.950;11.762;2022-09-03T19:23:22;2.53;;;1.00;;
17504;SDS011;8870;50.950;11.762;2022-09-03T19:28:40;2.80;;;0.80;;
17504;SDS011;8870;50.950;11.762;2022-09-03T19:34:08;2.55;;;1.00;;
17504;SDS011;8870;50.950;11.762;2022-09-03T19:39:48;1.42;;;0.80;;
17504;SDS011;8870;50.950;11.762;2022-09-03T19:45:20;1.77;;;0.88;;
17504;SDS011;8870;50.950;11.762;2022-09-03T19:50:52;2.72;;;0.70;;
17504;SDS011;8870;50.950;11.762;2022-09-03T19:56:18;1.00;;;0.70;;
17504;SDS011;8870;50.950;11.762;2022-09-03T20:01:39;1.00;;;0.63;;
17504;SDS011;8870;50.950;11.762;2022-09-03T20:07:02;2.38;;;0.80;;
17504;SDS011;8870;50.950;11.762;2022-09-03T20:12:25;1.40;;;0.80;;
17504;SDS011;8870;50.950;11.762;2022-09-03T20:17:39;0.70;;;0.70;;
17504;SDS011;8870;50.950;11.762;2022-09-03T20:23:00;1.52;;;0.90;;
17504;SDS011;8870;50.950;11.762;2022-09-03T20:28:14;1.67;;;0.73;;
17504;SDS011;8870;50.950;11.762;2022-09-03T20:33:36;1.63;;;0.80;;
17504;SDS011;8870;50.950;11.762;2022-09-03T20:44:24;1.42;;;1.00;;
17504;SDS011;8870;50.950;11.762;2022-09-03T20:49:44;1.98;;;1.15;;
17504;SDS011;8870;50.950;11.762;2022-09-03T20:55:03;2.28;;;1.00;;
17504;SDS011;8870;50.950;11.762;2022-09-03T21:00:15;1.20;;;1.00;;
17504;SDS011;8870;50.950;11.762;2022-09-03T21:05:30;3.63;;;1.00;;
17504;SDS011;8870;50.950;11.762;2022-09-03T21:10:41;3.33;;;0.77;;
17504;SDS011;8870;50.950;11.762;2022-09-03T21:15:56;0.80;;;0.68;;
17504;SDS011;8870;50.950;11.762;2022-09-03T21:21:05;1.45;;;0.85;;
17504;SDS011;8870;50.950;11.762;2022-09-03T21:26:24;2.15;;;0.90;;
17504;SDS011;8870;50.950;11.762;2022-09-03T21:36:41;1.95;;;1.58;;
17504;SDS011;8870;50.950;11.762;2022-09-03T21:41:51;2.08;;;1.35;;
17504;SDS011;8870;50.950;11.762;2022-09-03T21:47:03;1.77;;;1.00;;
17504;SDS011;8870;50.950;11.762;2022-09-03T21:52:13;1.73;;;1.10;;
17504;SDS011;8870;50.950;11.762;2022-09-03T21:57:23;5.25;;;1.10;;
17504;SDS011;8870;50.950;11.762;2022-09-03T22:02:35;1.48;;;1.20;;
17504;SDS011;8870;50.950;11.762;2022-09-03T22:07:49;2.08;;;1.38;;
17504;SDS011;8870;50.950;11.762;2022-09-03T22:13:08;1.85;;;1.00;;
17504;SDS011;8870;50.950;11.762;2022-09-03T22:18:21;4.40;;;1.10;;
17504;SDS011;8870;50.950;11.762;2022-09-03T22:23:31;3.25;;;1.10;;
17504;SDS011;8870;50.950;11.762;2022-09-03T22:28:47;1.45;;;0.90;;
17504;SDS011;8870;50.950;11.762;2022-09-03T22:34:02;3.83;;;1.20;;
17504;SDS011;8870;50.950;11.762;2022-09-03T22:39:21;2.35;;;1.10;;
17504;SDS011;8870;50.950;11.762;2022-09-03T22:50:27;3.00;;;1.30;;
17504;SDS011;8870;50.950;11.762;2022-09-03T22:55:35;1.98;;;1.10;;
17504;SDS011;8870;50.950;11.762;2022-09-03T23:00:44;1.42;;;0.90;;
17504;SDS011;8870;50.950;11.762;2022-09-03T23:06:00;2.03;;;1.10;;
17504;SDS011;8870;50.950;11.762;2022-09-03T23:11:11;1.10;;;0.90;;
17504;SDS011;8870;50.950;11.762;2022-09-03T23:16:29;3.00;;;1.23;;
17504;SDS011;8870;50.950;11.762;2022-09-03T23:21:42;3.60;;;1.00;;
17504;SDS011;8870;50.950;11.762;2022-09-03T23:26:52;1.38;;;1.00;;
17504;SDS011;8870;50.950;11.762;2022-09-03T23:31:58;2.17;;;1.20;;
17504;SDS011;8870;50.950;11.762;2022-09-03T23:42:40;1.58;;;1.10;;
17504;SDS011;8870;50.950;11.762;2022-09-03T23:47:57;2.58;;;1.10;;
17504;SDS011;8870;50.950;11.762;2022-09-03T23:53:18;1.95;;;1.00;;
17504;SDS011;8870;50.950;11.762;2022-09-03T23:58:33;1.20;;;0.88;;
